Time;durP1;ratioP1;P1;durP2;ratioP2;P2;SDS_P1;SDS_P2;PMS_P1;PMS_P2;Temp;Humidity;BMP_temperature;BMP_pressure;BME280_temperature;BME280_humidity;BME280_pressure;Samples;Min_cycle;Max_cycle;Signal;HPM_P1;HPM_P2
2022/06/12 00:00:49;;;;;;;3.60;3.40;;;17.80;96.40;;;;;;5002980;28;20169;-91
2022/06/12 00:03:16;;;;;;;3.70;3.40;;;17.70;96.40;;;;;;5020585;28;20206;-92
2022/06/12 00:05:46;;;;;;;3.77;3.57;;;17.60;96.60;;;;;;5003293;28;20312;-92
2022/06/12 00:08:12;;;;;;;3.20;3.00;;;17.50;96.70;;;;;;4987041;28;20704;-90
2022/06/12 00:10:41;;;;;;;3.50;3.27;;;17.50;96.90;;;;;;5003252;28;20640;-94
2022/06/12 00:13:09;;;;;;;4.37;3.43;;;17.50;96.80;;;;;;5020827;28;20248;-93
2022/06/12 00:15:35;;;;;;;3.63;3.40;;;17.50;96.70;;;;;;5002777;28;20201;-92
2022/06/12 00:18:01;;;;;;;3.37;3.17;;;17.50;96.90;;;;;;5003259;28;20185;-93
2022/06/12 00:20:28;;;;;;;3.67;3.40;;;17.50;96.90;;;;;;5003092;28;20204;-93
2022/06/12 00:22:55;;;;;;;3.60;3.27;;;17.40;97.00;;;;;;5020410;28;20181;-93
2022/06/12 00:25:24;;;;;;;3.57;3.37;;;17.20;97.30;;;;;;5020517;28;20585;-94
2022/06/12 00:27:50;;;;;;;3.67;3.33;;;17.20;97.40;;;;;;5020839;28;20656;-93
2022/06/12 00:30:19;;;;;;;3.97;3.70;;;17.20;97.50;;;;;;5018203;28;20181;-94
2022/06/12 00:32:49;;;;;;;3.47;3.27;;;17.10;97.60;;;;;;5024458;28;20695;-92
2022/06/12 00:35:17;;;;;;;3.43;3.20;;;17.10;97.60;;;;;;5010504;28;20181;-93
2022/06/12 00:37:43;;;;;;;3.50;3.30;;;17.00;97.70;;;;;;5019528;28;20181;-93
2022/06/12 00:40:10;;;;;;;3.30;3.10;;;17.00;97.70;;;;;;5034209;28;20197;-93
2022/06/12 00:42:44;;;;;;;4.30;3.50;;;17.00;97.80;;;;;;5018259;28;20177;-93
2022/06/12 00:45:37;;;;;;;3.50;3.20;;;16.90;97.90;;;;;;5017261;28;20173;-93
2022/06/12 00:48:07;;;;;;;3.50;3.20;;;16.80;98.10;;;;;;4999975;28;20240;-94
2022/06/12 00:50:35;;;;;;;3.57;3.33;;;16.90;98.10;;;;;;5017719;28;20169;-93
2022/06/12 00:53:01;;;;;;;3.43;3.23;;;16.80;98.10;;;;;;5018086;28;20199;-93
2022/06/12 00:55:39;;;;;;;4.03;3.70;;;16.80;98.20;;;;;;5017308;28;20169;-93
2022/06/12 00:58:12;;;;;;;3.70;3.50;;;16.80;98.30;;;;;;5017654;28;20168;-92
2022/06/12 01:00:39;;;;;;;4.20;3.10;;;16.70;98.40;;;;;;5036062;28;20200;-89
2022/06/12 01:03:06;;;;;;;3.37;3.20;;;16.70;98.40;;;;;;5035767;28;20169;-90
2022/06/12 01:08:19;;;;;;;3.20;3.00;;;16.70;98.50;;;;;;5016792;28;20235;-91
2022/06/12 01:10:47;;;;;;;3.53;3.33;;;16.70;98.40;;;;;;5017226;28;20173;-90
2022/06/12 01:13:18;;;;;;;3.40;3.20;;;16.70;98.50;;;;;;4999458;28;20271;-91
2022/06/12 01:15:48;;;;;;;3.07;2.87;;;16.70;98.50;;;;;;4998729;28;20263;-93
2022/06/12 01:18:17;;;;;;;3.20;3.00;;;16.60;98.60;;;;;;5017038;28;20161;-92
2022/06/12 01:21:29;;;;;;;3.23;3.03;;;16.60;98.70;;;;;;4999083;28;20617;-93
2022/06/12 01:24:24;;;;;;;3.70;3.40;;;16.50;98.90;;;;;;5016227;28;20577;-92
2022/06/12 01:27:13;;;;;;;3.50;3.20;;;16.50;99.00;;;;;;5025414;28;20161;-84
2022/06/12 01:30:02;;;;;;;3.60;3.30;;;16.50;99.10;;;;;;5014868;28;20172;-90
2022/06/12 01:32:55;;;;;;;3.23;3.03;;;16.60;99.00;;;;;;5030851;28;20190;-88
2022/06/12 01:36:12;;;;;;;3.50;3.20;;;16.60;98.90;;;;;;4999974;28;20200;-89
2022/06/12 01:38:52;;;;;;;3.87;3.40;;;16.60;99.00;;;;;;4982099;28;20270;-90
2022/06/12 01:41:34;;;;;;;3.30;3.10;;;16.50;99.00;;;;;;4998037;28;20169;-87
2022/06/12 01:44:21;;;;;;;2.90;2.80;;;16.40;99.00;;;;;;5015668;28;20252;-85
2022/06/12 01:47:06;;;;;;;3.47;3.27;;;16.40;99.10;;;;;;5015802;28;20165;-91
2022/06/12 01:49:47;;;;;;;3.50;3.30;;;16.40;99.10;;;;;;4998412;28;20180;-92
2022/06/12 01:52:16;;;;;;;3.23;3.03;;;16.30;99.30;;;;;;5015732;28;20173;-93
2022/06/12 01:55:12;;;;;;;3.50;3.20;;;16.40;99.40;;;;;;4998429;28;20177;-89
2022/06/12 01:57:46;;;;;;;3.57;3.37;;;16.40;99.20;;;;;;5015860;28;20250;-91
2022/06/12 02:00:22;;;;;;;3.10;2.93;;;16.40;99.20;;;;;;5015774;28;20170;-93
2022/06/12 02:03:01;;;;;;;3.97;3.20;;;16.50;99.10;;;;;;4998325;28;20173;-94
2022/06/12 02:05:46;;;;;;;3.27;3.07;;;16.50;99.00;;;;;;4998313;28;20179;-93
2022/06/12 02:08:15;;;;;;;3.97;3.23;;;16.60;99.00;;;;;;5015716;28;20707;-92
2022/06/12 02:13:10;;;;;;;6.33;3.60;;;16.60;98.80;;;;;;5020241;28;20172;-91
2022/06/12 02:13:47;;;;;;;4.03;3.50;;;16.70;98.80;;;;;;5026602;28;20593;-92
2022/06/12 02:16:21;;;;;;;3.37;3.07;;;16.70;98.80;;;;;;5016036;28;20215;-93
2022/06/12 02:18:52;;;;;;;3.77;3.40;;;16.70;98.80;;;;;;4998145;28;20183;-92
2022/06/12 02:21:21;;;;;;;3.47;3.10;;;16.70;98.70;;;;;;5015555;28;20157;-94
2022/06/12 02:24:02;;;;;;;4.87;3.33;;;16.80;98.80;;;;;;5015449;28;20180;-93
2022/06/12 02:26:42;;;;;;;3.30;3.10;;;16.80;98.80;;;;;;4997983;28;20231;-92
2022/06/12 02:29:15;;;;;;;3.33;3.10;;;16.80;98.80;;;;;;5015101;28;20203;-93
2022/06/12 02:31:43;;;;;;;4.27;3.87;;;16.80;98.80;;;;;;4997822;28;20865;-93
2022/06/12 02:34:25;;;;;;;3.70;3.10;;;16.70;98.90;;;;;;4998441;28;20205;-93
2022/06/12 02:37:02;;;;;;;3.97;3.57;;;16.60;98.90;;;;;;4997852;28;20209;-93
2022/06/12 02:39:36;;;;;;;3.47;3.27;;;16.60;99.10;;;;;;5015525;28;20164;-93
2022/06/12 02:42:07;;;;;;;4.93;3.30;;;16.60;99.10;;;;;;5015596;28;20203;-93
2022/06/12 02:44:42;;;;;;;3.50;3.30;;;16.60;99.00;;;;;;5023734;28;20241;-92
2022/06/12 02:47:18;;;;;;;3.73;3.43;;;16.50;99.20;;;;;;5037174;28;20163;-93
2022/06/12 02:49:46;;;;;;;3.40;3.10;;;16.50;99.30;;;;;;5025263;28;20523;-93
2022/06/12 02:52:34;;;;;;;4.27;3.80;;;16.50;99.20;;;;;;5015367;28;20187;-92
2022/06/12 02:55:07;;;;;;;3.93;3.63;;;16.40;99.30;;;;;;5015092;28;20176;-92
2022/06/12 02:57:51;;;;;;;3.37;3.17;;;16.30;99.50;;;;;;5015162;28;20200;-93
2022/06/12 03:00:43;;;;;;;4.40;3.50;;;16.30;99.50;;;;;;5031290;28;20165;-92
2022/06/12 03:03:20;;;;;;;3.97;3.60;;;16.30;99.60;;;;;;5018099;28;20175;-93
2022/06/12 03:05:50;;;;;;;4.93;3.53;;;16.30;99.70;;;;;;5035542;28;20176;-94
2022/06/12 03:08:21;;;;;;;3.30;3.10;;;16.30;99.80;;;;;;5037858;28;20228;-88
2022/06/12 03:10:55;;;;;;;4.47;3.43;;;16.30;99.70;;;;;;5031971;28;20192;-92
2022/06/12 03:13:25;;;;;;;3.50;3.20;;;16.40;99.70;;;;;;5015916;28;20169;-92
2022/06/12 03:15:58;;;;;;;3.77;3.47;;;16.40;99.70;;;;;;5015637;28;20555;-91
2022/06/12 03:18:31;;;;;;;4.60;3.40;;;16.30;99.60;;;;;;5001277;28;20534;-92
2022/06/12 03:21:16;;;;;;;3.53;3.23;;;16.40;99.70;;;;;;5016635;28;20169;-92
2022/06/12 03:24:18;;;;;;;3.63;3.33;;;16.40;99.70;;;;;;5026341;28;20145;-91
2022/06/12 03:27:06;;;;;;;3.40;3.20;;;16.40;99.80;;;;;;5007283;28;20177;-91
2022/06/12 03:29:37;;;;;;;4.27;3.50;;;16.40;99.70;;;;;;5005593;28;20180;-93
2022/06/12 03:32:12;;;;;;;3.57;3.37;;;16.40;99.70;;;;;;5022039;28;20181;-92
2022/06/12 03:35:01;;;;;;;4.03;3.33;;;16.40;99.90;;;;;;5035201;28;20150;-86
2022/06/12 03:37:27;;;;;;;3.30;3.10;;;16.40;99.70;;;;;;5034536;28;20207;-92
2022/06/12 03:40:05;;;;;;;3.27;3.07;;;16.40;99.90;;;;;;5021150;28;20518;-92
2022/06/12 03:42:50;;;;;;;3.63;3.40;;;16.40;99.90;;;;;;5019859;28;20184;-93
2022/06/12 03:45:33;;;;;;;3.47;3.00;;;16.50;99.90;;;;;;5015326;28;20165;-92
2022/06/12 03:48:10;;;;;;;2.90;2.80;;;16.50;99.80;;;;;;5016309;28;20164;-94
2022/06/12 03:50:49;;;;;;;3.20;3.00;;;16.50;99.90;;;;;;5020259;28;20162;-91
2022/06/12 03:53:19;;;;;;;3.20;3.10;;;16.60;99.90;;;;;;5030031;28;20179;-94
2022/06/12 03:58:59;;;;;;;3.50;3.30;;;16.50;99.90;;;;;;5014197;28;20175;-94
2022/06/12 04:01:27;;;;;;;3.13;2.93;;;16.40;99.90;;;;;;5014377;28;20157;-94
2022/06/12 04:03:54;;;;;;;4.70;3.50;;;16.20;99.90;;;;;;4996838;28;20171;-94
2022/06/12 04:06:26;;;;;;;3.57;3.23;;;16.10;99.90;;;;;;5016391;28;20206;-94
2022/06/12 04:09:05;;;;;;;3.50;3.23;;;16.20;99.90;;;;;;5018173;28;20201;-93
2022/06/12 04:11:34;;;;;;;4.53;3.30;;;16.20;99.90;;;;;;5018213;28;20183;-94
2022/06/12 04:14:03;;;;;;;3.80;3.30;;;16.20;99.90;;;;;;5017937;28;20172;-93
2022/06/12 04:16:49;;;;;;;3.50;3.20;;;16.30;99.90;;;;;;5017450;28;20216;-91
2022/06/12 04:19:22;;;;;;;3.83;3.53;;;16.40;99.90;;;;;;5017525;28;20164;-90
2022/06/12 04:21:55;;;;;;;3.83;3.20;;;16.40;99.90;;;;;;5018004;28;20588;-94
2022/06/12 04:24:25;;;;;;;5.27;3.33;;;16.60;99.90;;;;;;5018421;28;20169;-94
2022/06/12 04:27:12;;;;;;;3.40;3.20;;;16.70;99.90;;;;;;5000208;28;20209;-94
2022/06/12 04:29:39;;;;;;;3.50;3.10;;;16.80;99.90;;;;;;5026183;28;20188;-93
2022/06/12 04:32:07;;;;;;;3.50;3.20;;;16.80;99.90;;;;;;5039857;28;20181;-85
2022/06/12 04:34:41;;;;;;;3.80;3.50;;;16.80;99.90;;;;;;5030103;28;20182;-91
2022/06/12 04:37:15;;;;;;;3.40;3.10;;;16.90;99.90;;;;;;5017435;28;20209;-95
2022/06/12 04:39:42;;;;;;;3.40;3.17;;;17.00;99.90;;;;;;5017214;28;20191;-93
2022/06/12 04:42:08;;;;;;;3.93;3.00;;;17.00;99.90;;;;;;5017118;28;20526;-93
2022/06/12 04:44:35;;;;;;;3.27;3.07;;;17.10;99.90;;;;;;5004301;28;20180;-87
2022/06/12 04:47:04;;;;;;;3.33;3.13;;;17.10;99.90;;;;;;5038504;28;20181;-86
2022/06/12 04:49:32;;;;;;;3.70;3.40;;;17.20;99.90;;;;;;5032687;28;20169;-93
2022/06/12 04:52:00;;;;;;;3.37;3.10;;;17.30;99.70;;;;;;5018058;28;20181;-94
2022/06/12 04:54:27;;;;;;;3.63;3.33;;;17.40;99.90;;;;;;5017413;28;20181;-90
2022/06/12 04:56:53;;;;;;;3.67;3.37;;;17.50;99.20;;;;;;5016641;28;20705;-91
2022/06/12 04:59:20;;;;;;;5.97;3.70;;;17.50;99.20;;;;;;5016821;28;20180;-94
2022/06/12 05:01:48;;;;;;;4.23;3.60;;;17.70;99.20;;;;;;4999579;28;20204;-93
2022/06/12 05:04:15;;;;;;;4.43;3.80;;;17.80;98.80;;;;;;4999414;28;20184;-93
2022/06/12 05:06:42;;;;;;;3.37;3.13;;;17.90;98.60;;;;;;5000758;28;20228;-93
2022/06/12 05:09:10;;;;;;;3.40;3.10;;;18.00;98.50;;;;;;5001915;28;20244;-94
2022/06/12 05:11:36;;;;;;;4.40;3.53;;;18.20;98.30;;;;;;5001393;28;20181;-93
2022/06/12 05:14:02;;;;;;;3.80;3.50;;;18.20;98.10;;;;;;5018448;28;20176;-92
2022/06/12 05:16:43;;;;;;;4.50;3.40;;;18.30;98.10;;;;;;5017762;28;20209;-89
2022/06/12 05:19:12;;;;;;;3.97;3.10;;;18.40;98.70;;;;;;5018581;28;20188;-93
2022/06/12 05:21:39;;;;;;;4.83;3.70;;;18.40;98.50;;;;;;5021345;28;20176;-90
2022/06/12 05:24:05;;;;;;;5.80;3.60;;;18.60;98.70;;;;;;5016798;28;20169;-92
2022/06/12 05:26:33;;;;;;;7.87;4.33;;;18.60;98.20;;;;;;5001864;28;20654;-92
2022/06/12 05:29:01;;;;;;;5.10;4.10;;;18.70;98.20;;;;;;4999525;28;20242;-92
2022/06/12 05:31:37;;;;;;;4.37;3.70;;;18.80;97.80;;;;;;5009668;28;20220;-94
2022/06/12 05:34:12;;;;;;;5.67;3.67;;;18.70;97.90;;;;;;5007757;28;20173;-92
2022/06/12 05:36:50;;;;;;;4.87;3.33;;;18.60;97.80;;;;;;5023808;28;20205;-93
2022/06/12 05:39:22;;;;;;;5.27;4.83;;;18.60;98.20;;;;;;5003879;28;20637;-94
2022/06/12 05:42:02;;;;;;;4.43;3.60;;;18.60;98.30;;;;;;5013258;28;20633;-91
2022/06/12 05:44:34;;;;;;;4.13;3.80;;;18.70;97.70;;;;;;5002955;28;20259;-94
2022/06/12 05:47:01;;;;;;;3.73;3.40;;;18.90;97.50;;;;;;5003549;28;20184;-94
2022/06/12 05:49:33;;;;;;;4.00;3.70;;;19.00;97.10;;;;;;5001466;28;20181;-93
2022/06/12 05:52:16;;;;;;;5.53;3.77;;;19.10;97.10;;;;;;5001862;28;20188;-93
2022/06/12 05:54:53;;;;;;;3.87;3.57;;;19.30;97.40;;;;;;5019595;28;20170;-90
2022/06/12 05:57:20;;;;;;;4.77;3.73;;;19.50;96.90;;;;;;4987440;28;20777;-89
2022/06/12 05:59:46;;;;;;;4.83;3.80;;;19.60;96.50;;;;;;5021643;28;20170;-95
2022/06/12 06:02:12;;;;;;;4.33;3.40;;;19.70;96.30;;;;;;4984886;28;20193;-95
2022/06/12 06:04:38;;;;;;;4.70;3.67;;;19.80;95.90;;;;;;5015880;28;20173;-91
2022/06/12 06:07:04;;;;;;;5.57;3.90;;;19.90;96.00;;;;;;5015207;28;20229;-92
2022/06/12 06:09:30;;;;;;;3.97;3.50;;;19.80;95.80;;;;;;4998046;28;20185;-91
2022/06/12 06:11:55;;;;;;;6.93;3.80;;;19.90;96.00;;;;;;5014888;28;20177;-88
2022/06/12 06:14:21;;;;;;;3.77;3.17;;;20.00;95.60;;;;;;5015114;28;20173;-91
2022/06/12 06:16:47;;;;;;;3.80;3.50;;;20.10;96.00;;;;;;5032871;28;20208;-85
2022/06/12 06:19:14;;;;;;;3.97;3.60;;;20.20;95.70;;;;;;5022210;28;20165;-91
2022/06/12 06:21:40;;;;;;;3.77;3.50;;;20.30;95.70;;;;;;5016285;28;20173;-89
2022/06/12 06:24:08;;;;;;;5.97;3.67;;;20.30;95.70;;;;;;5015526;28;20176;-89
2022/06/12 06:26:34;;;;;;;3.77;3.40;;;20.40;95.70;;;;;;5019195;28;20185;-87
2022/06/12 06:29:00;;;;;;;3.60;3.30;;;20.50;95.60;;;;;;5011791;28;20665;-90
2022/06/12 06:31:26;;;;;;;6.13;5.50;;;20.60;95.50;;;;;;4996848;28;20177;-90
2022/06/12 06:33:53;;;;;;;5.27;4.10;;;20.70;95.20;;;;;;4995886;28;20204;-91
2022/06/12 06:36:19;;;;;;;5.37;3.50;;;20.80;95.30;;;;;;4995495;28;20354;-90
2022/06/12 06:38:45;;;;;;;7.50;3.30;;;20.90;95.00;;;;;;4977560;28;20209;-91
2022/06/12 06:41:12;;;;;;;4.27;3.73;;;21.00;95.10;;;;;;4994635;28;20185;-90
2022/06/12 06:46:23;;;;;;;7.73;4.67;;;21.30;94.80;;;;;;4995103;28;20223;-89
2022/06/12 06:48:49;;;;;;;5.43;4.60;;;21.40;94.80;;;;;;4994075;28;20185;-90
2022/06/12 06:51:15;;;;;;;6.80;3.73;;;21.50;94.80;;;;;;4995283;28;20178;-91
2022/06/12 06:53:41;;;;;;;4.27;3.87;;;21.70;94.50;;;;;;4978406;28;20272;-92
2022/06/12 06:56:07;;;;;;;6.30;4.00;;;21.80;94.70;;;;;;4994884;28;20210;-91
2022/06/12 06:58:35;;;;;;;4.77;3.80;;;21.90;94.70;;;;;;4995780;28;20166;-92
2022/06/12 07:01:01;;;;;;;5.00;3.83;;;22.00;94.60;;;;;;4995200;28;20182;-91
2022/06/12 07:03:29;;;;;;;6.10;5.40;;;22.00;94.80;;;;;;4976632;28;20170;-92
2022/06/12 07:05:55;;;;;;;5.28;4.65;;;22.10;95.00;;;;;;4994950;28;20177;-93
2022/06/12 07:08:23;;;;;;;5.85;4.60;;;22.20;95.10;;;;;;4996763;28;20230;-92
2022/06/12 07:10:50;;;;;;;7.72;4.43;;;22.40;95.00;;;;;;5000305;28;20190;-90
2022/06/12 07:13:16;;;;;;;4.80;4.15;;;22.40;95.10;;;;;;4999506;28;20174;-89
2022/06/12 07:15:43;;;;;;;4.57;3.95;;;22.50;95.40;;;;;;4998685;28;20262;-90
2022/06/12 07:18:10;;;;;;;7.28;4.40;;;22.60;95.40;;;;;;4994483;28;20181;-91
2022/06/12 07:20:41;;;;;;;4.63;3.75;;;22.60;95.10;;;;;;4988463;28;20165;-89
2022/06/12 07:23:08;;;;;;;4.30;3.40;;;22.70;95.30;;;;;;5013993;28;20177;-92
2022/06/12 07:25:45;;;;;;;3.97;3.38;;;22.80;94.90;;;;;;5003104;28;20169;-93
2022/06/12 07:28:12;;;;;;;3.80;3.40;;;23.00;93.80;;;;;;4997108;28;20174;-91
2022/06/12 07:30:38;;;;;;;5.95;3.40;;;23.10;94.10;;;;;;4995425;28;20174;-90
2022/06/12 07:33:06;;;;;;;5.40;3.63;;;23.10;94.60;;;;;;4993521;28;20514;-90
2022/06/12 07:35:34;;;;;;;6.30;4.65;;;23.20;95.10;;;;;;4994020;28;20205;-90
2022/06/12 07:38:00;;;;;;;4.78;3.80;;;23.20;94.80;;;;;;4976584;28;20181;-90
2022/06/12 07:40:33;;;;;;;4.40;3.80;;;23.30;94.90;;;;;;4980028;28;20626;-90
2022/06/12 07:42:58;;;;;;;6.88;3.67;;;23.40;95.40;;;;;;4999363;28;20166;-89
2022/06/12 07:45:24;;;;;;;3.60;3.30;;;23.50;94.90;;;;;;4999505;28;20688;-89
2022/06/12 07:47:50;;;;;;;5.13;3.15;;;23.60;94.70;;;;;;4997922;28;20177;-90
2022/06/12 07:50:16;;;;;;;3.13;2.92;;;23.70;94.10;;;;;;4998384;28;20197;-90
2022/06/12 07:52:42;;;;;;;5.03;3.15;;;23.80;93.20;;;;;;4998657;28;20181;-90
2022/06/12 07:55:11;;;;;;;5.28;3.55;;;24.00;93.10;;;;;;4980951;28;20239;-90
2022/06/12 07:57:38;;;;;;;5.57;3.28;;;24.20;93.30;;;;;;4998667;28;20209;-90
2022/06/12 08:00:06;;;;;;;3.60;3.10;;;24.30;92.50;;;;;;4999242;28;20171;-88
2022/06/12 08:02:32;;;;;;;4.65;3.10;;;24.40;91.90;;;;;;5001897;28;20245;-89
2022/06/12 08:04:58;;;;;;;3.88;3.45;;;24.40;92.20;;;;;;5006908;28;20165;-88
2022/06/12 08:07:24;;;;;;;3.58;2.97;;;24.50;91.70;;;;;;5021652;28;20230;-89
2022/06/12 08:09:49;;;;;;;2.45;2.20;;;24.60;91.00;;;;;;5011765;28;20181;-88
2022/06/12 08:12:15;;;;;;;3.00;2.75;;;24.80;86.80;;;;;;4999573;28;20178;-91
2022/06/12 08:14:41;;;;;;;2.30;2.10;;;24.80;89.10;;;;;;4984338;28;20178;-89
2022/06/12 08:17:07;;;;;;;2.28;2.17;;;24.90;83.50;;;;;;5003780;28;20213;-87
2022/06/12 08:22:17;;;;;;;2.30;2.10;;;25.10;84.00;;;;;;5010142;28;20213;-89
2022/06/12 08:24:44;;;;;;;2.20;2.10;;;25.10;83.70;;;;;;4993200;28;20178;-92
2022/06/12 08:27:11;;;;;;;2.80;2.60;;;25.10;82.80;;;;;;5007603;28;20178;-91
2022/06/12 08:29:39;;;;;;;3.15;2.10;;;25.10;83.40;;;;;;4983540;28;20174;-91
2022/06/12 08:32:11;;;;;;;1.90;1.80;;;25.00;82.30;;;;;;4999410;28;20178;-90
2022/06/12 08:34:43;;;;;;;2.00;1.90;;;24.90;82.30;;;;;;5000000;28;20166;-90
2022/06/12 08:37:23;;;;;;;2.58;2.25;;;24.90;82.40;;;;;;4997691;28;20229;-91
2022/06/12 08:39:49;;;;;;;2.60;2.40;;;24.90;82.70;;;;;;4997584;28;20162;-92
2022/06/12 08:42:41;;;;;;;2.35;2.15;;;24.90;82.30;;;;;;5000107;28;20166;-91
2022/06/12 08:45:21;;;;;;;2.10;1.70;;;25.10;82.20;;;;;;4997191;28;20476;-90
2022/06/12 08:48:25;;;;;;;3.70;1.90;;;25.20;75.10;;;;;;4979506;28;20170;-91
2022/06/12 08:51:10;;;;;;;1.70;1.60;;;25.20;78.20;;;;;;4991419;28;20244;-91
2022/06/12 08:53:46;;;;;;;2.13;2.03;;;25.30;77.00;;;;;;4997184;28;20184;-91
2022/06/12 08:56:18;;;;;;;1.70;1.60;;;25.30;75.80;;;;;;4997191;28;20672;-91
2022/06/12 08:59:01;;;;;;;1.73;1.63;;;25.40;76.00;;;;;;4996476;28;20178;-91
2022/06/12 09:01:29;;;;;;;1.73;1.63;;;25.40;75.10;;;;;;4996210;28;20630;-90
2022/06/12 09:03:55;;;;;;;1.55;1.45;;;25.50;75.00;;;;;;4978758;28;20181;-88
2022/06/12 09:06:38;;;;;;;1.50;1.40;;;25.80;74.30;;;;;;4996318;28;20174;-90
2022/06/12 09:09:30;;;;;;;1.85;1.60;;;25.80;74.90;;;;;;4995844;28;20182;-90
2022/06/12 09:12:24;;;;;;;2.55;1.90;;;26.00;73.50;;;;;;4996253;28;20696;-91
2022/06/12 09:15:27;;;;;;;1.80;1.70;;;26.10;71.70;;;;;;4979048;28;20246;-91
2022/06/12 09:18:31;;;;;;;2.15;1.50;;;26.20;71.10;;;;;;4997001;28;20186;-90
2022/06/12 09:21:38;;;;;;;1.75;1.65;;;26.30;70.10;;;;;;4982191;28;20249;-91
2022/06/12 09:24:10;;;;;;;2.10;1.70;;;26.40;70.80;;;;;;4983385;28;20582;-92
2022/06/12 09:26:54;;;;;;;2.72;1.75;;;26.70;71.50;;;;;;4981629;28;20178;-91
2022/06/12 09:29:26;;;;;;;1.67;1.58;;;26.70;70.10;;;;;;4996023;28;20190;-90
2022/06/12 09:32:01;;;;;;;1.60;1.50;;;26.60;70.50;;;;;;4995831;28;20174;-90
2022/06/12 09:34:40;;;;;;;1.35;1.30;;;26.70;70.50;;;;;;4978710;28;20256;-90
2022/06/12 09:40:32;;;;;;;1.75;1.65;;;27.00;70.50;;;;;;4996512;28;20305;-91
2022/06/12 09:43:01;;;;;;;1.65;1.55;;;26.90;70.30;;;;;;4997840;28;20635;-91
2022/06/12 09:45:38;;;;;;;1.80;1.70;;;26.90;70.00;;;;;;5000261;28;20178;-91
2022/06/12 09:48:36;;;;;;;2.13;1.60;;;26.90;69.20;;;;;;4998992;28;20154;-91
2022/06/12 09:51:48;;;;;;;2.00;1.80;;;26.90;69.80;;;;;;4999922;28;20178;-91
2022/06/12 09:54:20;;;;;;;1.73;1.63;;;26.70;68.80;;;;;;4972638;28;20185;-92
2022/06/12 09:57:24;;;;;;;1.73;1.73;;;26.70;68.70;;;;;;4995629;28;20221;-91
2022/06/12 09:59:59;;;;;;;2.15;1.67;;;26.80;68.90;;;;;;4977349;28;20196;-92
2022/06/12 10:02:50;;;;;;;3.05;1.90;;;26.60;68.60;;;;;;4977035;28;20172;-91
2022/06/12 10:05:24;;;;;;;1.90;1.80;;;26.70;69.50;;;;;;4994899;28;20684;-92
2022/06/12 10:08:25;;;;;;;2.10;1.90;;;26.60;68.50;;;;;;4994709;28;20249;-88
2022/06/12 10:11:13;;;;;;;2.50;2.40;;;26.50;69.00;;;;;;4977780;28;20417;-92
2022/06/12 10:13:49;;;;;;;3.80;1.90;;;26.50;69.00;;;;;;4995053;28;20163;-90
2022/06/12 10:16:34;;;;;;;1.65;1.55;;;26.50;69.40;;;;;;4994431;28;20229;-91
2022/06/12 10:19:18;;;;;;;1.83;1.73;;;26.50;69.30;;;;;;4995152;28;20165;-87
2022/06/12 10:21:49;;;;;;;1.80;1.70;;;26.50;68.20;;;;;;4994767;28;20166;-92
2022/06/12 10:24:19;;;;;;;1.77;1.67;;;26.60;70.00;;;;;;4994875;28;20158;-92
2022/06/12 10:27:05;;;;;;;1.90;1.80;;;26.60;69.40;;;;;;4996070;28;20174;-90
2022/06/12 10:29:50;;;;;;;1.80;1.70;;;26.90;69.60;;;;;;4994288;28;20193;-92
2022/06/12 10:32:19;;;;;;;1.90;1.80;;;27.10;69.10;;;;;;4994690;28;20162;-89
2022/06/12 10:34:45;;;;;;;1.63;1.60;;;27.40;69.10;;;;;;4994997;28;20215;-90
2022/06/12 10:37:29;;;;;;;1.50;1.50;;;27.50;67.70;;;;;;4977739;28;20221;-91
2022/06/12 10:40:16;;;;;;;1.55;1.50;;;27.50;68.60;;;;;;4994735;28;20212;-90
2022/06/12 10:42:48;;;;;;;1.60;1.50;;;27.30;67.70;;;;;;4977492;28;20182;-90
2022/06/12 10:45:35;;;;;;;1.80;1.70;;;27.10;68.00;;;;;;4994009;28;20174;-90
2022/06/12 10:48:18;;;;;;;1.70;1.52;;;27.00;67.20;;;;;;4994929;28;20174;-90
2022/06/12 10:51:13;;;;;;;1.92;1.80;;;26.90;66.20;;;;;;4994299;28;20170;-91
2022/06/12 10:53:39;;;;;;;1.77;1.77;;;26.80;65.90;;;;;;4895769;29;20185;-90
2022/06/12 10:56:08;;;;;;;1.70;1.60;;;26.70;65.50;;;;;;4896332;29;20281;-89
2022/06/12 10:59:12;;;;;;;2.53;1.85;;;26.60;65.90;;;;;;4896184;29;20250;-90
2022/06/12 11:02:14;;;;;;;1.95;1.85;;;26.50;67.10;;;;;;4892805;29;20277;-89
2022/06/12 11:04:53;;;;;;;1.40;1.40;;;26.60;67.70;;;;;;4896785;29;20193;-91
2022/06/12 11:07:28;;;;;;;1.40;1.40;;;26.80;65.10;;;;;;4898549;29;20311;-90
2022/06/12 11:10:16;;;;;;;1.85;1.75;;;26.90;65.90;;;;;;4882363;29;20220;-90
2022/06/12 11:12:58;;;;;;;1.83;1.80;;;26.90;65.70;;;;;;4897961;29;20669;-90
2022/06/12 11:15:43;;;;;;;1.52;1.40;;;27.00;65.40;;;;;;4881803;29;20185;-91
2022/06/12 11:18:14;;;;;;;3.53;2.00;;;27.20;65.90;;;;;;4900854;29;20193;-90
2022/06/12 11:21:10;;;;;;;1.60;1.60;;;27.40;65.20;;;;;;4919333;29;20156;-92
2022/06/12 11:24:03;;;;;;;1.90;1.80;;;27.70;64.90;;;;;;4916781;29;20182;-90
2022/06/12 11:26:49;;;;;;;3.15;2.90;;;27.90;63.90;;;;;;4917545;29;20181;-88
2022/06/12 11:29:48;;;;;;;2.65;2.55;;;28.00;65.30;;;;;;4913895;28;20176;-89
2022/06/12 11:32:27;;;;;;;5.32;3.50;;;28.10;65.40;;;;;;4998685;28;20158;-92
2022/06/12 11:34:58;;;;;;;2.10;2.00;;;27.80;64.00;;;;;;4995600;28;20170;-89
2022/06/12 11:37:49;;;;;;;2.25;2.13;;;27.90;64.10;;;;;;5009755;28;20198;-90
2022/06/12 11:40:37;;;;;;;2.10;2.00;;;27.80;64.40;;;;;;4997367;28;20201;-92
2022/06/12 11:43:18;;;;;;;3.72;2.53;;;27.60;65.60;;;;;;4976543;28;20170;-91
2022/06/12 11:45:47;;;;;;;1.73;1.70;;;27.80;66.60;;;;;;4995665;28;20173;-88
2022/06/12 11:48:31;;;;;;;1.90;1.80;;;27.80;66.60;;;;;;4994146;28;20177;-91
2022/06/12 11:51:22;;;;;;;2.03;1.92;;;27.80;67.80;;;;;;4976783;28;20185;-92
2022/06/12 11:54:06;;;;;;;2.10;1.88;;;27.80;67.80;;;;;;4993773;28;20285;-91
2022/06/12 11:56:47;;;;;;;3.83;2.40;;;27.90;69.50;;;;;;4994404;28;20206;-92
2022/06/12 11:59:31;;;;;;;2.03;1.90;;;27.80;69.40;;;;;;4976392;28;20623;-94
2022/06/12 12:02:23;;;;;;;2.20;2.00;;;27.80;68.80;;;;;;4980605;28;20234;-91
2022/06/12 12:05:13;;;;;;;1.92;1.83;;;27.80;68.60;;;;;;4994890;28;20168;-92
2022/06/12 12:07:46;;;;;;;1.95;1.75;;;27.70;66.70;;;;;;4994314;28;20228;-92
2022/06/12 12:10:31;;;;;;;2.10;1.98;;;27.60;67.00;;;;;;4978006;28;20182;-92
2022/06/12 12:13:05;;;;;;;2.30;2.20;;;27.50;66.80;;;;;;4994913;28;20241;-92
2022/06/12 12:15:40;;;;;;;2.28;2.10;;;27.50;65.40;;;;;;4999093;28;20169;-91
2022/06/12 12:18:17;;;;;;;1.98;1.88;;;27.50;66.20;;;;;;5000197;28;20205;-92
2022/06/12 12:20:44;;;;;;;2.55;2.00;;;27.60;66.10;;;;;;4976664;28;20169;-92
2022/06/12 12:23:27;;;;;;;1.90;1.80;;;27.90;67.10;;;;;;4994501;28;20174;-92
2022/06/12 12:26:03;;;;;;;2.00;1.90;;;28.20;66.00;;;;;;4995051;28;20182;-93
2022/06/12 12:28:32;;;;;;;3.10;1.60;;;28.30;64.40;;;;;;4996872;28;20166;-93
2022/06/12 12:31:02;;;;;;;1.52;1.52;;;28.30;62.70;;;;;;4998688;28;20170;-92
2022/06/12 12:33:29;;;;;;;2.13;1.90;;;28.30;63.40;;;;;;4980660;28;20170;-92
2022/06/12 12:41:48;;;;;;;1.90;1.80;;;28.00;65.30;;;;;;4997592;28;20180;-94
2022/06/12 12:44:29;;;;;;;2.08;1.98;;;28.20;65.30;;;;;;4996608;28;20170;-92
2022/06/12 12:46:55;;;;;;;2.20;1.77;;;28.30;65.50;;;;;;4997842;28;20176;-92
2022/06/12 12:49:34;;;;;;;1.83;1.73;;;28.20;65.60;;;;;;5003875;28;20249;-92
2022/06/12 12:52:10;;;;;;;1.73;1.73;;;28.20;66.40;;;;;;5008657;28;20365;-91
2022/06/12 12:54:55;;;;;;;2.00;1.90;;;28.40;65.20;;;;;;5013570;28;20181;-92
2022/06/12 12:57:39;;;;;;;1.77;1.63;;;28.40;62.90;;;;;;4999687;28;20297;-91
2022/06/12 13:00:20;;;;;;;1.88;1.77;;;28.40;64.00;;;;;;4982731;28;20716;-93
2022/06/12 13:02:56;;;;;;;2.47;2.00;;;28.50;64.60;;;;;;4997672;28;20257;-92
2022/06/12 13:05:47;;;;;;;1.83;1.73;;;28.40;64.30;;;;;;5012099;28;20185;-92
2022/06/12 13:08:52;;;;;;;2.20;1.80;;;28.30;64.70;;;;;;5014797;28;20210;-92
2022/06/12 13:11:33;;;;;;;1.90;1.80;;;28.10;65.00;;;;;;4963538;28;20209;-91
2022/06/12 13:14:07;;;;;;;1.85;1.75;;;28.00;61.90;;;;;;4979948;28;20174;-92
2022/06/12 13:16:55;;;;;;;2.00;1.90;;;27.90;62.00;;;;;;4996901;28;20561;-91
2022/06/12 13:19:26;;;;;;;3.45;1.98;;;27.90;62.00;;;;;;4998338;28;20158;-90
2022/06/12 13:22:27;;;;;;;2.20;1.98;;;27.80;61.80;;;;;;4998858;28;20170;-90
2022/06/12 13:25:04;;;;;;;1.90;1.80;;;27.70;62.00;;;;;;4994528;28;20182;-92
2022/06/12 13:27:33;;;;;;;1.70;1.60;;;27.70;62.40;;;;;;4981534;28;20201;-92
2022/06/12 13:30:00;;;;;;;2.03;1.70;;;27.60;62.70;;;;;;4997751;28;20229;-93
2022/06/12 13:32:31;;;;;;;1.75;1.65;;;27.50;61.80;;;;;;4996366;28;20677;-91
2022/06/12 13:35:17;;;;;;;1.92;1.83;;;27.60;62.00;;;;;;4995632;28;20177;-91
2022/06/12 13:37:47;;;;;;;1.98;1.88;;;27.60;62.50;;;;;;4978064;28;20233;-91
2022/06/12 13:40:33;;;;;;;1.83;1.75;;;27.60;61.80;;;;;;4978680;28;20209;-90
2022/06/12 13:43:22;;;;;;;1.77;1.67;;;27.60;62.10;;;;;;5003504;28;20228;-93
2022/06/12 13:46:23;;;;;;;1.70;1.60;;;27.60;63.60;;;;;;5017217;28;20174;-91
2022/06/12 13:48:50;;;;;;;1.70;1.70;;;27.60;61.70;;;;;;4996071;28;20192;-92
2022/06/12 13:51:32;;;;;;;1.50;1.50;;;27.70;61.10;;;;;;5000425;28;20584;-94